createdAt,value
2019-02-14T00:00:05.588Z,7.69
2019-02-14T00:02:32.565Z,7.94
2019-02-14T00:04:59.610Z,8.00
2019-02-14T00:07:26.536Z,7.75
2019-02-14T00:09:53.513Z,7.62
2019-02-14T00:12:20.634Z,7.75
2019-02-14T00:14:47.562Z,7.75
2019-02-14T00:17:14.788Z,7.75
2019-02-14T00:19:41.816Z,7.81
2019-02-14T00:22:08.787Z,7.69
2019-02-14T00:24:35.762Z,7.62
2019-02-14T00:27:02.722Z,7.69
2019-02-14T00:29:29.694Z,7.69
2019-02-14T00:31:56.654Z,7.69
2019-02-14T00:34:23.636Z,7.69
2019-02-14T00:36:50.583Z,7.75
2019-02-14T00:39:17.516Z,7.75
2019-02-14T00:41:44.477Z,7.75
2019-02-14T00:44:11.421Z,7.75
2019-02-14T00:46:38.358Z,7.75
2019-02-14T00:49:05.358Z,7.62
2019-02-14T00:51:32.405Z,7.69
2019-02-14T00:53:59.363Z,7.44
2019-02-14T00:56:26.323Z,7.69
2019-02-14T00:58:53.270Z,7.75
2019-02-14T01:01:20.187Z,7.75
2019-02-14T01:13:28.350Z,7.50
2019-02-14T01:15:55.328Z,7.62
2019-02-14T01:18:22.298Z,7.75
2019-02-14T01:20:49.217Z,7.75
2019-02-14T01:23:16.302Z,7.69
2019-02-14T01:25:43.331Z,7.81
2019-02-14T01:28:10.333Z,7.81
2019-02-14T01:30:37.263Z,7.75
2019-02-14T01:33:04.214Z,7.75
2019-02-14T01:35:31.197Z,7.81
2019-02-14T01:37:58.141Z,7.62
2019-02-14T01:40:25.111Z,7.44
2019-02-14T01:42:52.085Z,7.44
2019-02-14T01:45:19.113Z,7.56
2019-02-14T01:47:46.086Z,7.56
2019-02-14T01:50:13.050Z,7.69
2019-02-14T01:52:40.041Z,7.75
2019-02-14T01:55:07.030Z,7.56
2019-02-14T02:10:33.979Z,7.69
2019-02-14T02:13:00.947Z,7.37
2019-02-14T02:15:27.884Z,7.37
2019-02-14T02:17:54.807Z,7.62
2019-02-14T02:20:21.707Z,7.62
2019-02-14T02:22:48.702Z,7.25
2019-02-14T02:25:15.646Z,7.62
2019-02-14T02:27:42.597Z,7.75
2019-02-14T02:30:11.437Z,7.75
2019-02-14T02:32:38.460Z,7.62
2019-02-14T02:35:05.537Z,7.56
2019-02-14T02:37:32.515Z,7.75
2019-02-14T02:39:59.422Z,7.75
2019-02-14T02:42:26.434Z,7.56
2019-02-14T02:44:53.347Z,7.69
2019-02-14T02:47:20.290Z,7.69
2019-02-14T02:49:47.193Z,7.50
2019-02-14T02:52:14.145Z,7.62
2019-02-14T02:54:41.133Z,7.56
2019-02-14T02:57:08.108Z,7.44
2019-02-14T02:59:35.179Z,7.62
2019-02-14T03:02:02.344Z,7.81
2019-02-14T03:04:29.289Z,7.62
2019-02-14T03:06:56.261Z,7.50
2019-02-14T03:09:23.215Z,7.81
2019-02-14T03:11:50.147Z,7.75
2019-02-14T03:14:17.066Z,7.75
2019-02-14T03:16:44.065Z,7.44
2019-02-14T03:19:10.979Z,7.44
2019-02-14T03:21:37.997Z,7.44
2019-02-14T03:24:04.950Z,7.44
2019-02-14T03:26:31.957Z,7.75
2019-02-14T03:28:58.923Z,7.69
2019-02-14T03:31:25.848Z,7.94
2019-02-14T03:33:52.796Z,7.94
2019-02-14T03:36:19.742Z,7.81
2019-02-14T03:38:46.690Z,7.75
2019-02-14T03:41:13.639Z,7.81
2019-02-14T03:43:40.562Z,7.69
2019-02-14T03:46:07.571Z,7.69
2019-02-14T03:48:34.702Z,7.75
2019-02-14T03:51:01.649Z,7.75
2019-02-14T03:53:28.629Z,7.62
2019-02-14T03:55:55.575Z,7.62
2019-02-14T03:58:22.823Z,7.81
2019-02-14T04:00:49.805Z,7.62
2019-02-14T04:03:17.615Z,7.69
2019-02-14T04:05:44.629Z,7.62
2019-02-14T04:08:11.614Z,7.75
2019-02-14T04:10:38.566Z,7.75
2019-02-14T04:13:05.550Z,7.56
2019-02-14T04:15:32.535Z,7.69
2019-02-14T04:17:59.482Z,7.69
2019-02-14T04:20:26.994Z,7.69
2019-02-14T04:22:53.913Z,7.69
2019-02-14T04:25:20.844Z,7.69
2019-02-14T04:27:47.752Z,7.56
2019-02-14T04:30:14.727Z,7.50
2019-02-14T04:32:41.677Z,7.50
2019-02-14T04:35:22.280Z,7.81
2019-02-14T04:37:49.319Z,7.81
2019-02-14T04:40:17.189Z,7.69
2019-02-14T04:42:44.123Z,7.69
2019-02-14T04:45:11.151Z,7.37
2019-02-14T04:47:38.109Z,7.50
2019-02-14T04:50:05.317Z,7.50
2019-02-14T04:52:32.247Z,7.50
2019-02-14T04:54:59.248Z,7.62
2019-02-14T04:57:26.204Z,7.44
2019-02-14T04:59:54.228Z,7.44
2019-02-14T05:02:21.245Z,7.56
2019-02-14T05:04:48.248Z,7.69
2019-02-14T05:07:15.265Z,7.56
2019-02-14T05:09:42.272Z,7.50
2019-02-14T05:12:09.253Z,7.50
2019-02-14T05:14:36.195Z,7.50
2019-02-14T05:17:03.157Z,7.50
2019-02-14T05:19:30.094Z,7.87
2019-02-14T05:21:57.071Z,7.75
2019-02-14T05:24:24.023Z,7.75
2019-02-14T05:26:51.023Z,7.81
2019-02-14T05:29:17.958Z,7.81
2019-02-14T05:31:44.882Z,7.37
2019-02-14T05:34:11.848Z,7.50
2019-02-14T05:36:39.030Z,7.56
2019-02-14T05:39:06.051Z,7.56
2019-02-14T05:41:33.018Z,7.37
2019-02-14T05:44:00.044Z,7.69
2019-02-14T05:46:27.054Z,7.50
2019-02-14T05:48:54.062Z,7.81
2019-02-14T05:51:21.028Z,7.94
2019-02-14T05:53:48.041Z,7.81
2019-02-14T05:56:15.028Z,7.62
2019-02-14T05:58:41.973Z,7.56
2019-02-14T06:01:08.957Z,7.50
2019-02-14T06:03:35.893Z,7.87
2019-02-14T06:06:02.878Z,7.37
2019-02-14T06:08:29.771Z,7.37
2019-02-14T06:10:56.693Z,7.75
2019-02-14T06:13:23.685Z,7.50
2019-02-14T06:15:50.688Z,7.56
2019-02-14T06:18:17.697Z,7.75
2019-02-14T06:20:45.259Z,7.69
2019-02-14T06:23:12.342Z,7.75
2019-02-14T06:25:39.600Z,7.50
2019-02-14T06:28:06.658Z,7.75
2019-02-14T06:30:34.756Z,7.62
2019-02-14T06:33:01.920Z,7.81
2019-02-14T06:35:28.983Z,7.37
2019-02-14T06:37:55.968Z,7.56
2019-02-14T06:40:23.214Z,7.56
2019-02-14T06:42:50.166Z,7.44
2019-02-14T06:45:17.759Z,7.56
2019-02-14T06:47:44.811Z,7.44
2019-02-14T06:50:11.920Z,7.81
2019-02-14T06:52:40.383Z,7.44
2019-02-14T06:55:05.961Z,7.94
2019-02-14T06:57:35.817Z,7.62
2019-02-14T07:00:03.066Z,7.69
2019-02-14T07:02:30.083Z,7.50
2019-02-14T07:04:57.193Z,7.62
2019-02-14T07:07:24.362Z,7.56
2019-02-14T07:09:51.316Z,7.87
2019-02-14T07:12:18.427Z,7.81
2019-02-14T07:14:45.428Z,7.81
2019-02-14T07:17:12.472Z,7.94
2019-02-14T07:19:39.543Z,8.00
2019-02-14T07:22:06.568Z,7.87
2019-02-14T07:24:33.752Z,7.94
2019-02-14T07:27:00.762Z,8.00
2019-02-14T07:29:27.829Z,7.62
2019-02-14T07:31:54.800Z,7.94
2019-02-14T07:34:21.990Z,7.75
2019-02-14T07:36:49.033Z,7.62
2019-02-14T07:39:16.013Z,7.94
2019-02-14T07:41:43.030Z,8.06
2019-02-14T07:44:10.055Z,7.75
2019-02-14T07:46:37.108Z,7.56
2019-02-14T07:49:04.148Z,7.75
2019-02-14T07:51:31.855Z,8.00
2019-02-14T07:53:59.611Z,8.19
2019-02-14T07:56:26.663Z,7.94
2019-02-14T07:58:53.648Z,8.13
2019-02-14T08:01:20.727Z,8.13
2019-02-14T08:03:47.694Z,8.06
2019-02-14T08:06:14.696Z,8.06
2019-02-14T08:08:41.706Z,7.81
2019-02-14T08:11:08.698Z,8.06
2019-02-14T08:13:35.764Z,8.25
2019-02-14T08:16:02.799Z,8.13
2019-02-14T08:18:29.804Z,8.00
2019-02-14T08:20:56.752Z,8.25
2019-02-14T08:23:23.804Z,7.87
2019-02-14T08:25:50.851Z,7.94
2019-02-14T08:28:18.065Z,8.19
2019-02-14T08:30:45.041Z,8.31
2019-02-14T08:33:12.075Z,8.00
2019-02-14T08:35:39.111Z,8.38
2019-02-14T08:38:06.169Z,8.31
2019-02-14T08:40:33.300Z,8.13
2019-02-14T08:43:00.366Z,8.38
2019-02-14T08:45:27.393Z,8.44
2019-02-14T08:47:54.421Z,8.38
2019-02-14T08:50:21.406Z,8.44
2019-02-14T08:52:48.429Z,8.44
2019-02-14T08:55:15.404Z,8.31
2019-02-14T08:57:42.444Z,8.31
2019-02-14T09:00:10.973Z,8.56
2019-02-14T09:02:37.985Z,8.38
2019-02-14T09:05:05.124Z,8.50
2019-02-14T09:07:32.189Z,8.69
2019-02-14T09:09:59.236Z,8.69
2019-02-14T09:12:26.231Z,8.56
2019-02-14T09:14:53.254Z,8.31
2019-02-14T09:17:20.351Z,8.69
2019-02-14T09:19:47.293Z,8.75
2019-02-14T09:22:14.278Z,8.94
2019-02-14T09:24:41.291Z,8.69
2019-02-14T09:27:08.345Z,8.75
2019-02-14T09:29:35.421Z,8.69
2019-02-14T09:32:02.418Z,8.94
2019-02-14T09:34:29.424Z,8.88
2019-02-14T09:36:56.695Z,9.19
2019-02-14T09:39:24.287Z,9.19
2019-02-14T09:41:51.290Z,8.88
2019-02-14T09:44:18.288Z,9.06
2019-02-14T09:46:45.388Z,9.25
2019-02-14T09:49:12.476Z,9.13
2019-02-14T09:51:39.500Z,9.06
2019-02-14T09:54:06.596Z,9.13
2019-02-14T09:56:33.895Z,9.00
2019-02-14T09:59:00.915Z,8.94
2019-02-14T10:01:27.927Z,8.94
2019-02-14T10:03:55.012Z,9.31
2019-02-14T10:06:22.194Z,9.38
2019-02-14T10:08:49.177Z,9.25
2019-02-14T10:11:16.483Z,9.38
2019-02-14T10:13:43.900Z,9.56
2019-02-14T10:16:11.789Z,9.56
2019-02-14T10:18:38.862Z,9.56
2019-02-14T10:21:05.910Z,9.50
2019-02-14T10:23:32.934Z,9.44
2019-02-14T10:26:00.294Z,9.69
2019-02-14T10:28:27.337Z,9.44
2019-02-14T10:30:55.072Z,9.38
2019-02-14T10:33:22.271Z,9.25
2019-02-14T10:35:49.397Z,9.56
2019-02-14T10:38:22.242Z,9.56
2019-02-14T10:40:43.550Z,9.69
2019-02-14T10:43:10.810Z,9.63
2019-02-14T10:45:38.003Z,9.63
2019-02-14T10:48:05.126Z,9.56
2019-02-14T10:50:33.305Z,9.69
2019-02-14T10:53:00.393Z,9.69
2019-02-14T10:55:27.410Z,9.38
2019-02-14T10:57:54.491Z,9.44
2019-02-14T11:00:21.867Z,9.56
2019-02-14T11:02:49.770Z,9.63
2019-02-14T11:05:17.016Z,9.75
2019-02-14T11:07:44.051Z,9.69
2019-02-14T11:10:11.795Z,9.63
2019-02-14T11:12:38.866Z,9.81
2019-02-14T11:15:09.043Z,9.94
2019-02-14T11:17:34.614Z,9.88
2019-02-14T11:20:01.565Z,10.06
2019-02-14T11:22:28.652Z,9.94
2019-02-14T11:24:55.761Z,10.31
2019-02-14T11:27:24.203Z,10.13
2019-02-14T11:29:59.092Z,10.13
2019-02-14T11:32:34.378Z,10.25
2019-02-14T11:35:05.486Z,10.00
2019-02-14T11:37:36.687Z,9.81
2019-02-14T11:40:03.986Z,9.88
2019-02-14T11:42:31.224Z,9.81
2019-02-14T11:44:58.528Z,9.75
2019-02-14T11:47:25.770Z,9.75
2019-02-14T11:49:52.767Z,9.75
2019-02-14T11:52:20.008Z,9.44
2019-02-14T11:54:47.066Z,9.50
2019-02-14T11:57:14.090Z,9.25
2019-02-14T11:59:41.158Z,9.31
2019-02-14T12:02:08.265Z,9.63
2019-02-14T12:04:35.451Z,9.25
2019-02-14T12:07:02.485Z,9.38
2019-02-14T12:09:29.540Z,9.56
2019-02-14T12:11:56.840Z,9.63
2019-02-14T12:14:23.936Z,9.44
2019-02-14T12:16:51.912Z,9.38
2019-02-14T12:19:19.251Z,9.44
2019-02-14T12:21:46.870Z,9.88
2019-02-14T12:24:14.062Z,10.00
2019-02-14T12:26:41.173Z,10.19
2019-02-14T12:29:08.211Z,10.25
2019-02-14T12:31:35.425Z,10.19
2019-02-14T12:34:03.213Z,10.25
2019-02-14T12:36:30.246Z,10.00
2019-02-14T12:38:57.263Z,10.00
2019-02-14T12:41:24.370Z,9.88
2019-02-14T12:43:51.365Z,9.88
2019-02-14T12:46:18.372Z,9.88
2019-02-14T12:48:45.410Z,10.00
2019-02-14T12:51:12.423Z,9.94
2019-02-14T12:53:39.487Z,9.94
2019-02-14T12:56:06.677Z,10.13
2019-02-14T12:58:33.882Z,10.44
2019-02-14T13:01:01.460Z,10.31
2019-02-14T13:03:30.165Z,10.56
2019-02-14T13:05:57.193Z,10.69
2019-02-14T13:08:25.181Z,10.63
2019-02-14T13:10:52.256Z,10.56
2019-02-14T13:13:19.403Z,10.50
2019-02-14T13:15:46.406Z,10.56
2019-02-14T13:18:13.392Z,10.63
2019-02-14T13:20:42.093Z,10.44
2019-02-14T13:23:09.074Z,10.44
2019-02-14T13:25:36.225Z,10.13
2019-02-14T13:28:04.768Z,10.13
2019-02-14T13:30:32.186Z,10.13
2019-02-14T13:32:59.420Z,9.94
2019-02-14T13:35:26.556Z,9.94
2019-02-14T13:37:53.583Z,10.06
2019-02-14T13:40:20.583Z,10.06
2019-02-14T13:42:47.576Z,10.06
2019-02-14T13:45:15.879Z,10.13
2019-02-14T13:47:42.927Z,10.31
2019-02-14T13:50:10.424Z,10.38
2019-02-14T13:52:37.432Z,10.44
2019-02-14T13:55:06.977Z,10.19
2019-02-14T13:57:34.269Z,10.13
2019-02-14T14:00:04.556Z,10.31
2019-02-14T14:02:31.596Z,10.25
2019-02-14T14:04:58.707Z,10.25
2019-02-14T14:07:25.695Z,10.38
2019-02-14T14:09:52.691Z,10.25
2019-02-14T14:12:19.686Z,10.13
2019-02-14T14:14:46.717Z,10.25
2019-02-14T14:17:13.736Z,10.06
2019-02-14T14:19:41.751Z,10.38
2019-02-14T14:22:10.273Z,10.25
2019-02-14T14:24:37.351Z,10.25
2019-02-14T14:27:04.387Z,10.25
2019-02-14T14:29:34.999Z,10.19
2019-02-14T14:32:01.930Z,10.25
2019-02-14T14:34:29.043Z,10.13
2019-02-14T14:36:56.079Z,10.13
2019-02-14T14:39:46.052Z,10.19
2019-02-14T14:42:06.149Z,10.13
2019-02-14T14:44:44.110Z,10.19
2019-02-14T14:47:14.753Z,10.19
2019-02-14T14:49:41.847Z,10.19
2019-02-14T14:52:08.854Z,10.25
2019-02-14T14:54:35.987Z,10.19
2019-02-14T14:57:02.957Z,10.25
2019-02-14T14:59:30.132Z,10.25
2019-02-14T15:01:57.136Z,10.25
2019-02-14T15:04:24.229Z,10.19
2019-02-14T15:06:51.308Z,10.13
2019-02-14T15:09:18.354Z,10.25
2019-02-14T15:11:45.440Z,10.25
2019-02-14T15:14:12.408Z,10.19
2019-02-14T15:19:35.991Z,10.13
2019-02-14T15:22:03.047Z,10.44
2019-02-14T15:24:30.051Z,10.50
2019-02-14T15:26:57.153Z,10.44
2019-02-14T15:29:24.223Z,10.31
2019-02-14T15:31:51.241Z,10.31
2019-02-14T15:34:18.252Z,10.31
2019-02-14T15:36:46.887Z,10.19
2019-02-14T15:39:12.541Z,10.06
2019-02-14T15:41:39.623Z,9.94
2019-02-14T15:44:06.733Z,10.13
2019-02-14T15:46:33.753Z,9.94
2019-02-14T15:49:00.785Z,9.88
2019-02-14T15:51:27.822Z,10.19
2019-02-14T15:53:54.910Z,9.94
2019-02-14T15:56:22.022Z,9.94
2019-02-14T15:58:49.004Z,9.88
2019-02-14T16:01:16.951Z,10.44
2019-02-14T16:03:43.093Z,10.38
2019-02-14T16:06:10.156Z,10.31
2019-02-14T16:08:37.246Z,10.31
2019-02-14T16:11:04.570Z,10.31
2019-02-14T16:13:33.491Z,10.06
2019-02-14T16:15:58.926Z,9.94
2019-02-14T16:18:25.899Z,9.88
2019-02-14T16:20:52.936Z,9.88
2019-02-14T16:23:20.620Z,9.81
2019-02-14T16:25:49.634Z,9.94
2019-02-14T16:28:14.922Z,9.81
2019-02-14T16:30:42.088Z,9.81
2019-02-14T16:33:09.218Z,9.81
2019-02-14T16:35:36.402Z,9.69
2019-02-14T16:38:03.510Z,9.75
2019-02-14T16:40:38.319Z,10.00
2019-02-14T16:42:59.300Z,9.81
2019-02-14T16:45:26.567Z,9.69
2019-02-14T16:47:54.352Z,9.75
2019-02-14T16:50:21.636Z,9.81
2019-02-14T16:52:48.893Z,9.75
2019-02-14T16:55:16.064Z,9.63
2019-02-14T16:57:43.318Z,9.69
2019-02-14T17:00:12.896Z,9.81
2019-02-14T17:02:39.957Z,9.81
2019-02-14T17:05:07.088Z,9.75
2019-02-14T17:07:34.188Z,9.63
2019-02-14T17:10:01.973Z,9.56
2019-02-14T17:12:29.159Z,9.56
2019-02-14T17:14:56.281Z,9.50
2019-02-14T17:17:27.853Z,9.31
2019-02-14T17:19:50.324Z,9.25
2019-02-14T17:22:17.378Z,9.13
2019-02-14T17:24:44.386Z,9.00
2019-02-14T17:27:11.428Z,9.06
2019-02-14T17:29:50.652Z,9.13
2019-02-14T17:32:17.774Z,8.88
2019-02-14T17:34:45.553Z,9.00
2019-02-14T17:37:12.525Z,9.06
2019-02-14T17:39:39.543Z,9.25
2019-02-14T17:42:06.518Z,9.13
2019-02-14T17:44:33.567Z,9.44
2019-02-14T17:47:00.605Z,9.31
2019-02-14T17:49:27.715Z,9.06
2019-02-14T17:51:54.820Z,9.06
2019-02-14T17:54:22.026Z,8.88
2019-02-14T17:56:49.319Z,8.94
2019-02-14T17:59:16.270Z,8.88
2019-02-14T18:01:43.421Z,8.81
2019-02-14T18:04:10.552Z,8.75
2019-02-14T18:06:37.668Z,8.69
2019-02-14T18:09:05.468Z,8.75
2019-02-14T18:11:32.585Z,8.56
2019-02-14T18:13:59.687Z,8.75
2019-02-14T18:16:26.924Z,8.63
2019-02-14T18:18:54.164Z,8.63
2019-02-14T18:21:21.262Z,8.56
2019-02-14T18:23:48.541Z,8.63
2019-02-14T18:26:15.581Z,8.56
2019-02-14T18:28:42.607Z,8.50
2019-02-14T18:31:09.699Z,8.63
2019-02-14T18:33:36.735Z,8.50
2019-02-14T18:36:03.843Z,8.44
2019-02-14T18:38:31.658Z,8.38
2019-02-14T18:41:04.114Z,8.44
2019-02-14T18:43:25.755Z,8.44
2019-02-14T18:45:52.892Z,8.56
2019-02-14T18:48:22.008Z,8.50
2019-02-14T18:50:49.088Z,8.44
2019-02-14T18:53:16.118Z,8.56
2019-02-14T18:55:43.466Z,8.25
2019-02-14T18:58:10.531Z,8.50
2019-02-14T19:00:37.603Z,8.69
2019-02-14T19:03:04.631Z,8.81
2019-02-14T19:05:31.697Z,8.44
2019-02-14T19:07:58.738Z,8.38
2019-02-14T19:10:25.750Z,8.19
2019-02-14T19:12:52.879Z,8.25
2019-02-14T19:15:20.641Z,8.25
2019-02-14T19:17:47.763Z,8.19
2019-02-14T19:20:15.585Z,8.13
2019-02-14T19:22:42.757Z,8.13
2019-02-14T19:25:09.999Z,8.25
2019-02-14T19:27:37.132Z,8.25
2019-02-14T19:30:04.311Z,8.06
2019-02-14T19:32:31.407Z,8.06
2019-02-14T19:34:58.829Z,8.00
2019-02-14T19:37:25.868Z,8.06
2019-02-14T19:39:53.622Z,8.00
2019-02-14T19:42:20.642Z,8.06
2019-02-14T19:44:47.665Z,7.94
2019-02-14T19:47:14.835Z,7.94
2019-02-14T19:49:41.940Z,8.00
2019-02-14T19:52:11.900Z,8.06
2019-02-14T19:54:37.580Z,8.13
2019-02-14T19:57:04.673Z,8.00
2019-02-14T19:59:31.831Z,8.00
2019-02-14T20:01:58.936Z,8.00
2019-02-14T20:04:26.177Z,7.75
2019-02-14T20:06:53.323Z,7.87
2019-02-14T20:09:31.882Z,8.06
2019-02-14T20:12:05.817Z,7.94
2019-02-14T20:14:35.587Z,8.13
2019-02-14T20:17:06.957Z,8.06
2019-02-14T20:19:38.915Z,7.81
2019-02-14T20:22:08.884Z,7.87
2019-02-14T20:24:39.102Z,8.00
2019-02-14T20:27:13.014Z,7.81
2019-02-14T20:29:48.433Z,7.69
2019-02-14T20:35:09.870Z,7.81
2019-02-14T20:37:43.210Z,7.81
2019-02-14T20:40:12.261Z,7.87
2019-02-14T20:42:41.658Z,7.75
2019-02-14T20:45:14.081Z,7.75
2019-02-14T20:47:47.322Z,7.75
2019-02-14T20:50:18.317Z,7.69
2019-02-14T20:52:49.258Z,7.75
2019-02-14T20:55:33.818Z,7.75
2019-02-14T20:58:05.065Z,7.69
2019-02-14T21:00:38.249Z,7.69
2019-02-14T21:25:23.899Z,7.44
2019-02-14T21:28:02.202Z,7.37
2019-02-14T21:46:32.275Z,7.19
2019-02-14T21:49:03.223Z,7.31
2019-02-14T21:51:38.015Z,7.12
2019-02-14T21:54:09.511Z,7.06
2019-02-14T21:56:46.178Z,7.00
2019-02-14T21:59:30.493Z,7.12
2019-02-14T22:02:05.954Z,7.06
2019-02-14T22:04:39.597Z,7.06
2019-02-14T22:07:13.056Z,6.94
2019-02-14T22:09:48.338Z,7.06
2019-02-14T22:12:37.312Z,6.87
2019-02-14T22:14:47.104Z,6.81
2019-02-14T22:17:22.702Z,6.62
2019-02-14T22:19:52.371Z,6.69
2019-02-14T22:45:05.954Z,6.50
2019-02-14T22:47:38.096Z,6.62
2019-02-14T22:50:17.243Z,6.50
2019-02-14T22:52:47.655Z,6.62
2019-02-14T22:55:16.758Z,6.56
2019-02-14T22:57:48.130Z,6.56
2019-02-14T23:00:28.983Z,6.50
2019-02-14T23:03:01.154Z,6.50
2019-02-14T23:05:33.328Z,6.56
2019-02-14T23:08:06.616Z,6.44
2019-02-14T23:10:38.237Z,6.44
2019-02-14T23:13:08.454Z,6.44
2019-02-14T23:15:39.496Z,6.50
2019-02-14T23:27:53.463Z,6.50
2019-02-14T23:30:26.146Z,6.50
2019-02-14T23:32:57.396Z,6.50
2019-02-14T23:35:28.570Z,6.44
2019-02-14T23:38:02.454Z,6.31
2019-02-14T23:43:11.298Z,6.37
2019-02-14T23:45:43.774Z,6.37
2019-02-14T23:48:14.213Z,6.31
2019-02-14T23:50:46.076Z,6.31
2019-02-14T23:53:17.379Z,6.19
